sensor_id;sensor_type;location;lat;lon;timestamp;temperature;humidity
9762;DHT22;4920;49.594;11.022;2023-09-19T00:01:10;15.20;99.90
9762;DHT22;4920;49.594;11.022;2023-09-19T00:03:39;15.20;99.90
9762;DHT22;4920;49.594;11.022;2023-09-19T00:06:10;15.20;99.90
9762;DHT22;4920;49.594;11.022;2023-09-19T00:08:40;15.10;99.90
9762;DHT22;4920;49.594;11.022;2023-09-19T00:11:11;15.10;99.90
9762;DHT22;4920;49.594;11.022;2023-09-19T00:13:43;15.10;99.90
9762;DHT22;4920;49.594;11.022;2023-09-19T00:16:12;15.10;99.90
9762;DHT22;4920;49.594;11.022;2023-09-19T00:18:42;15.10;99.90
9762;DHT22;4920;49.594;11.022;2023-09-19T00:21:10;15.00;99.90
9762;DHT22;4920;49.594;11.022;2023-09-19T00:23:39;15.00;99.90
9762;DHT22;4920;49.594;11.022;2023-09-19T00:26:09;15.00;99.90
9762;DHT22;4920;49.594;11.022;2023-09-19T00:28:39;15.00;99.90
9762;DHT22;4920;49.594;11.022;2023-09-19T00:31:10;15.00;99.90
9762;DHT22;4920;49.594;11.022;2023-09-19T00:33:40;15.00;99.90
9762;DHT22;4920;49.594;11.022;2023-09-19T00:36:10;15.00;99.90
9762;DHT22;4920;49.594;11.022;2023-09-19T00:38:38;15.00;99.90
9762;DHT22;4920;49.594;11.022;2023-09-19T00:41:07;14.90;99.90
9762;DHT22;4920;49.594;11.022;2023-09-19T00:43:36;14.90;99.90
9762;DHT22;4920;49.594;11.022;2023-09-19T00:46:06;14.90;99.90
9762;DHT22;4920;49.594;11.022;2023-09-19T00:48:40;14.90;99.90
9762;DHT22;4920;49.594;11.022;2023-09-19T00:51:11;14.90;99.90
9762;DHT22;4920;49.594;11.022;2023-09-19T00:53:42;14.90;99.90
9762;DHT22;4920;49.594;11.022;2023-09-19T00:56:14;14.80;99.90
9762;DHT22;4920;49.594;11.022;2023-09-19T01:02:19;14.80;99.90
9762;DHT22;4920;49.594;11.022;2023-09-19T01:04:50;14.70;99.90
9762;DHT22;4920;49.594;11.022;2023-09-19T01:07:20;14.70;99.90
9762;DHT22;4920;49.594;11.022;2023-09-19T01:09:50;14.70;99.90
9762;DHT22;4920;49.594;11.022;2023-09-19T01:12:30;14.70;99.90
9762;DHT22;4920;49.594;11.022;2023-09-19T01:15:08;14.60;99.90
9762;DHT22;4920;49.594;11.022;2023-09-19T01:17:45;14.60;99.90
9762;DHT22;4920;49.594;11.022;2023-09-19T01:20:22;14.60;99.90
9762;DHT22;4920;49.594;11.022;2023-09-19T01:23:04;14.60;99.90
9762;DHT22;4920;49.594;11.022;2023-09-19T01:26:06;14.60;99.90
9762;DHT22;4920;49.594;11.022;2023-09-19T01:28:51;14.60;99.90
9762;DHT22;4920;49.594;11.022;2023-09-19T01:31:25;14.60;99.90
9762;DHT22;4920;49.594;11.022;2023-09-19T01:33:59;14.60;99.90
9762;DHT22;4920;49.594;11.022;2023-09-19T01:36:30;14.60;99.90
9762;DHT22;4920;49.594;11.022;2023-09-19T01:39:02;14.60;99.90
9762;DHT22;4920;49.594;11.022;2023-09-19T01:41:54;14.70;99.90
9762;DHT22;4920;49.594;11.022;2023-09-19T01:44:30;14.70;99.90
9762;DHT22;4920;49.594;11.022;2023-09-19T01:47:07;14.70;99.90
9762;DHT22;4920;49.594;11.022;2023-09-19T01:49:55;14.80;99.90
9762;DHT22;4920;49.594;11.022;2023-09-19T01:52:28;14.80;99.90
9762;DHT22;4920;49.594;11.022;2023-09-19T01:55:02;14.90;99.90
9762;DHT22;4920;49.594;11.022;2023-09-19T01:57:40;15.00;99.90
9762;DHT22;4920;49.594;11.022;2023-09-19T02:00:12;15.10;99.90
9762;DHT22;4920;49.594;11.022;2023-09-19T02:02:45;15.10;99.90
9762;DHT22;4920;49.594;11.022;2023-09-19T02:05:22;15.20;99.90
9762;DHT22;4920;49.594;11.022;2023-09-19T02:07:52;15.20;99.90
9762;DHT22;4920;49.594;11.022;2023-09-19T02:10:22;15.30;99.90
9762;DHT22;4920;49.594;11.022;2023-09-19T02:12:51;15.30;99.90
9762;DHT22;4920;49.594;11.022;2023-09-19T02:15:20;15.30;99.90
9762;DHT22;4920;49.594;11.022;2023-09-19T02:17:51;15.40;99.90
9762;DHT22;4920;49.594;11.022;2023-09-19T02:20:20;15.40;99.90
9762;DHT22;4920;49.594;11.022;2023-09-19T02:22:50;15.40;99.90
9762;DHT22;4920;49.594;11.022;2023-09-19T02:25:20;15.40;99.90
9762;DHT22;4920;49.594;11.022;2023-09-19T02:27:49;15.50;99.90
9762;DHT22;4920;49.594;11.022;2023-09-19T02:30:22;15.50;99.90
9762;DHT22;4920;49.594;11.022;2023-09-19T02:32:54;15.50;99.90
9762;DHT22;4920;49.594;11.022;2023-09-19T02:35:23;15.50;99.90
9762;DHT22;4920;49.594;11.022;2023-09-19T02:37:54;15.50;99.90
9762;DHT22;4920;49.594;11.022;2023-09-19T02:40:23;15.50;99.90
9762;DHT22;4920;49.594;11.022;2023-09-19T02:42:55;15.60;99.90
9762;DHT22;4920;49.594;11.022;2023-09-19T02:45:26;15.60;99.90
9762;DHT22;4920;49.594;11.022;2023-09-19T02:47:58;15.60;99.90
9762;DHT22;4920;49.594;11.022;2023-09-19T02:50:27;15.50;99.90
9762;DHT22;4920;49.594;11.022;2023-09-19T02:52:56;15.50;99.90
9762;DHT22;4920;49.594;11.022;2023-09-19T02:55:25;15.50;99.90
9762;DHT22;4920;49.594;11.022;2023-09-19T02:57:55;15.30;99.90
9762;DHT22;4920;49.594;11.022;2023-09-19T03:00:24;15.30;99.90
9762;DHT22;4920;49.594;11.022;2023-09-19T03:02:56;15.20;99.90
9762;DHT22;4920;49.594;11.022;2023-09-19T03:05:27;15.20;99.90
9762;DHT22;4920;49.594;11.022;2023-09-19T03:07:58;15.10;99.90
9762;DHT22;4920;49.594;11.022;2023-09-19T03:10:30;15.10;99.90
9762;DHT22;4920;49.594;11.022;2023-09-19T03:13:00;15.10;99.90
9762;DHT22;4920;49.594;11.022;2023-09-19T03:15:30;15.10;99.90
9762;DHT22;4920;49.594;11.022;2023-09-19T03:18:01;15.00;99.90
9762;DHT22;4920;49.594;11.022;2023-09-19T03:20:30;15.00;99.90
9762;DHT22;4920;49.594;11.022;2023-09-19T03:22:59;15.00;99.90
9762;DHT22;4920;49.594;11.022;2023-09-19T03:25:28;15.00;99.90
9762;DHT22;4920;49.594;11.022;2023-09-19T03:27:58;15.00;99.90
9762;DHT22;4920;49.594;11.022;2023-09-19T03:30:27;15.00;99.90
9762;DHT22;4920;49.594;11.022;2023-09-19T03:32:56;15.00;99.90
9762;DHT22;4920;49.594;11.022;2023-09-19T03:35:27;15.00;99.90
9762;DHT22;4920;49.594;11.022;2023-09-19T03:37:56;15.00;99.90
9762;DHT22;4920;49.594;11.022;2023-09-19T03:40:25;14.90;99.90
9762;DHT22;4920;49.594;11.022;2023-09-19T03:42:54;15.00;99.90
9762;DHT22;4920;49.594;11.022;2023-09-19T03:45:23;15.00;99.90
9762;DHT22;4920;49.594;11.022;2023-09-19T03:47:52;15.00;99.90
9762;DHT22;4920;49.594;11.022;2023-09-19T03:50:23;14.90;99.90
9762;DHT22;4920;49.594;11.022;2023-09-19T03:52:57;15.00;99.90
9762;DHT22;4920;49.594;11.022;2023-09-19T03:55:26;14.90;99.90
9762;DHT22;4920;49.594;11.022;2023-09-19T03:57:55;14.90;99.90
9762;DHT22;4920;49.594;11.022;2023-09-19T04:00:26;14.90;99.90
9762;DHT22;4920;49.594;11.022;2023-09-19T04:02:58;14.90;99.90
9762;DHT22;4920;49.594;11.022;2023-09-19T04:05:30;14.90;99.90
9762;DHT22;4920;49.594;11.022;2023-09-19T04:08:00;14.90;99.90
9762;DHT22;4920;49.594;11.022;2023-09-19T04:10:29;15.00;99.90
9762;DHT22;4920;49.594;11.022;2023-09-19T04:12:58;15.00;99.90
9762;DHT22;4920;49.594;11.022;2023-09-19T04:15:28;15.10;99.90
9762;DHT22;4920;49.594;11.022;2023-09-19T04:17:57;15.20;99.90
9762;DHT22;4920;49.594;11.022;2023-09-19T04:20:26;15.30;99.90
9762;DHT22;4920;49.594;11.022;2023-09-19T04:22:55;15.50;99.90
9762;DHT22;4920;49.594;11.022;2023-09-19T04:25:25;15.60;99.90
9762;DHT22;4920;49.594;11.022;2023-09-19T04:27:55;15.70;99.90
9762;DHT22;4920;49.594;11.022;2023-09-19T04:30:25;15.80;99.90
9762;DHT22;4920;49.594;11.022;2023-09-19T04:32:54;15.80;99.90
9762;DHT22;4920;49.594;11.022;2023-09-19T04:35:23;15.80;99.90
9762;DHT22;4920;49.594;11.022;2023-09-19T04:37:52;15.90;99.90
9762;DHT22;4920;49.594;11.022;2023-09-19T04:40:22;15.90;99.90
9762;DHT22;4920;49.594;11.022;2023-09-19T04:42:55;16.00;99.90
9762;DHT22;4920;49.594;11.022;2023-09-19T04:45:25;16.00;99.90
9762;DHT22;4920;49.594;11.022;2023-09-19T04:47:55;16.10;99.90
9762;DHT22;4920;49.594;11.022;2023-09-19T04:50:24;16.20;99.90
9762;DHT22;4920;49.594;11.022;2023-09-19T04:52:55;16.30;99.90
9762;DHT22;4920;49.594;11.022;2023-09-19T04:55:24;16.30;99.90
9762;DHT22;4920;49.594;11.022;2023-09-19T04:57:54;16.40;99.90
9762;DHT22;4920;49.594;11.022;2023-09-19T05:00:23;16.40;99.90
9762;DHT22;4920;49.594;11.022;2023-09-19T05:02:56;16.40;99.90
9762;DHT22;4920;49.594;11.022;2023-09-19T05:05:25;16.40;99.90
9762;DHT22;4920;49.594;11.022;2023-09-19T05:07:54;16.50;99.90
9762;DHT22;4920;49.594;11.022;2023-09-19T05:10:23;16.50;99.90
9762;DHT22;4920;49.594;11.022;2023-09-19T05:12:54;16.50;99.90
9762;DHT22;4920;49.594;11.022;2023-09-19T05:15:24;16.60;99.90
9762;DHT22;4920;49.594;11.022;2023-09-19T05:17:53;16.60;99.90
9762;DHT22;4920;49.594;11.022;2023-09-19T05:20:25;16.70;99.90
9762;DHT22;4920;49.594;11.022;2023-09-19T05:22:58;16.70;99.90
9762;DHT22;4920;49.594;11.022;2023-09-19T05:25:31;16.80;99.90
9762;DHT22;4920;49.594;11.022;2023-09-19T05:28:02;16.80;99.90
9762;DHT22;4920;49.594;11.022;2023-09-19T05:30:32;16.80;99.90
9762;DHT22;4920;49.594;11.022;2023-09-19T05:33:01;16.80;99.90
9762;DHT22;4920;49.594;11.022;2023-09-19T05:35:32;16.90;99.90
9762;DHT22;4920;49.594;11.022;2023-09-19T05:38:01;16.90;99.90
9762;DHT22;4920;49.594;11.022;2023-09-19T05:40:30;17.00;99.90
9762;DHT22;4920;49.594;11.022;2023-09-19T05:43:01;17.00;99.90
9762;DHT22;4920;49.594;11.022;2023-09-19T05:45:31;17.10;99.90
9762;DHT22;4920;49.594;11.022;2023-09-19T05:48:07;17.10;99.90
9762;DHT22;4920;49.594;11.022;2023-09-19T05:50:37;17.20;99.90
9762;DHT22;4920;49.594;11.022;2023-09-19T05:53:06;17.20;99.90
9762;DHT22;4920;49.594;11.022;2023-09-19T05:55:35;17.30;99.90
9762;DHT22;4920;49.594;11.022;2023-09-19T05:58:06;17.30;99.90
9762;DHT22;4920;49.594;11.022;2023-09-19T06:00:36;17.40;99.90
9762;DHT22;4920;49.594;11.022;2023-09-19T06:03:06;17.40;99.90
9762;DHT22;4920;49.594;11.022;2023-09-19T06:05:35;17.50;99.90
9762;DHT22;4920;49.594;11.022;2023-09-19T06:08:07;17.60;99.90
9762;DHT22;4920;49.594;11.022;2023-09-19T06:10:37;17.70;99.90
9762;DHT22;4920;49.594;11.022;2023-09-19T06:13:07;17.70;99.90
9762;DHT22;4920;49.594;11.022;2023-09-19T06:15:38;17.80;99.90
9762;DHT22;4920;49.594;11.022;2023-09-19T06:18:11;17.80;99.90
9762;DHT22;4920;49.594;11.022;2023-09-19T06:20:42;17.80;99.90
9762;DHT22;4920;49.594;11.022;2023-09-19T06:23:12;17.90;99.90
9762;DHT22;4920;49.594;11.022;2023-09-19T06:25:41;17.80;99.90
9762;DHT22;4920;49.594;11.022;2023-09-19T06:28:13;17.80;99.90
9762;DHT22;4920;49.594;11.022;2023-09-19T06:30:45;17.80;99.90
9762;DHT22;4920;49.594;11.022;2023-09-19T06:33:15;17.80;99.90
9762;DHT22;4920;49.594;11.022;2023-09-19T06:35:46;17.80;99.90
9762;DHT22;4920;49.594;11.022;2023-09-19T06:38:15;17.90;99.90
9762;DHT22;4920;49.594;11.022;2023-09-19T06:40:44;18.00;99.90
9762;DHT22;4920;49.594;11.022;2023-09-19T06:43:15;18.00;99.90
9762;DHT22;4920;49.594;11.022;2023-09-19T06:45:45;18.10;99.90
9762;DHT22;4920;49.594;11.022;2023-09-19T06:48:14;18.20;99.90
9762;DHT22;4920;49.594;11.022;2023-09-19T06:50:43;18.40;99.90
9762;DHT22;4920;49.594;11.022;2023-09-19T06:53:12;18.70;99.90
9762;DHT22;4920;49.594;11.022;2023-09-19T06:55:41;19.00;99.90
9762;DHT22;4920;49.594;11.022;2023-09-19T06:58:11;19.20;99.90
9762;DHT22;4920;49.594;11.022;2023-09-19T07:00:41;19.30;99.90
9762;DHT22;4920;49.594;11.022;2023-09-19T07:03:13;19.40;99.90
9762;DHT22;4920;49.594;11.022;2023-09-19T07:05:43;19.50;99.90
9762;DHT22;4920;49.594;11.022;2023-09-19T07:08:12;19.70;99.90
9762;DHT22;4920;49.594;11.022;2023-09-19T07:10:42;19.90;99.90
9762;DHT22;4920;49.594;11.022;2023-09-19T07:13:12;20.00;99.90
9762;DHT22;4920;49.594;11.022;2023-09-19T07:15:45;20.20;99.90
9762;DHT22;4920;49.594;11.022;2023-09-19T07:18:18;20.20;99.90
9762;DHT22;4920;49.594;11.022;2023-09-19T07:20:47;20.20;99.90
9762;DHT22;4920;49.594;11.022;2023-09-19T07:23:20;20.20;99.90
9762;DHT22;4920;49.594;11.022;2023-09-19T07:25:50;20.10;99.90
9762;DHT22;4920;49.594;11.022;2023-09-19T07:28:19;20.10;99.90
9762;DHT22;4920;49.594;11.022;2023-09-19T07:30:50;20.10;99.90
9762;DHT22;4920;49.594;11.022;2023-09-19T07:33:20;20.10;99.90
9762;DHT22;4920;49.594;11.022;2023-09-19T07:35:49;20.10;99.90
9762;DHT22;4920;49.594;11.022;2023-09-19T07:38:17;20.00;99.90
9762;DHT22;4920;49.594;11.022;2023-09-19T07:40:46;19.80;99.90
9762;DHT22;4920;49.594;11.022;2023-09-19T07:43:15;19.70;99.90
9762;DHT22;4920;49.594;11.022;2023-09-19T07:45:45;19.70;99.90
9762;DHT22;4920;49.594;11.022;2023-09-19T07:48:16;19.70;99.90
9762;DHT22;4920;49.594;11.022;2023-09-19T07:50:44;19.80;99.90
9762;DHT22;4920;49.594;11.022;2023-09-19T07:53:13;20.10;99.90
9762;DHT22;4920;49.594;11.022;2023-09-19T07:55:44;20.30;99.90
9762;DHT22;4920;49.594;11.022;2023-09-19T07:58:15;20.50;99.90
9762;DHT22;4920;49.594;11.022;2023-09-19T08:00:44;20.60;99.90
9762;DHT22;4920;49.594;11.022;2023-09-19T08:03:13;20.50;99.90
9762;DHT22;4920;49.594;11.022;2023-09-19T08:05:45;20.50;99.90
9762;DHT22;4920;49.594;11.022;2023-09-19T08:08:15;20.40;99.90
9762;DHT22;4920;49.594;11.022;2023-09-19T08:10:44;20.30;99.90
9762;DHT22;4920;49.594;11.022;2023-09-19T08:13:16;20.20;99.90
9762;DHT22;4920;49.594;11.022;2023-09-19T08:15:45;20.10;99.90
9762;DHT22;4920;49.594;11.022;2023-09-19T08:18:15;20.10;99.90
9762;DHT22;4920;49.594;11.022;2023-09-19T08:20:51;20.10;99.90
9762;DHT22;4920;49.594;11.022;2023-09-19T08:23:20;20.20;99.90
9762;DHT22;4920;49.594;11.022;2023-09-19T08:25:49;20.30;99.90
9762;DHT22;4920;49.594;11.022;2023-09-19T08:28:19;20.40;99.90
9762;DHT22;4920;49.594;11.022;2023-09-19T08:30:52;20.40;99.90
9762;DHT22;4920;49.594;11.022;2023-09-19T08:33:22;20.40;99.90
9762;DHT22;4920;49.594;11.022;2023-09-19T08:35:55;20.60;99.90
9762;DHT22;4920;49.594;11.022;2023-09-19T08:38:24;20.70;99.90
9762;DHT22;4920;49.594;11.022;2023-09-19T08:40:57;20.70;99.90
9762;DHT22;4920;49.594;11.022;2023-09-19T08:43:28;20.70;99.90
9762;DHT22;4920;49.594;11.022;2023-09-19T08:46:03;20.80;99.90
9762;DHT22;4920;49.594;11.022;2023-09-19T08:48:39;20.90;99.90
9762;DHT22;4920;49.594;11.022;2023-09-19T08:51:16;21.10;99.90
9762;DHT22;4920;49.594;11.022;2023-09-19T08:53:51;21.40;99.90
9762;DHT22;4920;49.594;11.022;2023-09-19T08:56:22;21.50;99.90
9762;DHT22;4920;49.594;11.022;2023-09-19T08:58:57;21.60;99.90
9762;DHT22;4920;49.594;11.022;2023-09-19T09:01:27;21.80;99.90
9762;DHT22;4920;49.594;11.022;2023-09-19T09:03:58;21.90;99.90
9762;DHT22;4920;49.594;11.022;2023-09-19T09:06:29;22.10;99.90
9762;DHT22;4920;49.594;11.022;2023-09-19T09:09:00;22.00;99.90
9762;DHT22;4920;49.594;11.022;2023-09-19T09:11:33;21.90;99.90
9762;DHT22;4920;49.594;11.022;2023-09-19T09:14:02;22.00;99.90
9762;DHT22;4920;49.594;11.022;2023-09-19T09:16:31;21.90;99.90
9762;DHT22;4920;49.594;11.022;2023-09-19T09:19:02;21.90;99.90
9762;DHT22;4920;49.594;11.022;2023-09-19T09:21:33;21.90;99.90
9762;DHT22;4920;49.594;11.022;2023-09-19T09:24:28;22.00;99.90
9762;DHT22;4920;49.594;11.022;2023-09-19T09:26:58;22.10;99.90
9762;DHT22;4920;49.594;11.022;2023-09-19T09:29:44;22.20;99.90
9762;DHT22;4920;49.594;11.022;2023-09-19T09:32:22;22.10;99.90
9762;DHT22;4920;49.594;11.022;2023-09-19T09:34:53;22.10;99.90
9762;DHT22;4920;49.594;11.022;2023-09-19T09:37:29;22.10;99.90
9762;DHT22;4920;49.594;11.022;2023-09-19T09:40:00;22.20;99.90
9762;DHT22;4920;49.594;11.022;2023-09-19T09:42:47;22.20;99.90
9762;DHT22;4920;49.594;11.022;2023-09-19T09:45:20;22.20;99.90
9762;DHT22;4920;49.594;11.022;2023-09-19T09:47:56;22.30;99.90
9762;DHT22;4920;49.594;11.022;2023-09-19T09:50:28;22.50;99.90
9762;DHT22;4920;49.594;11.022;2023-09-19T09:53:21;22.50;99.90
9762;DHT22;4920;49.594;11.022;2023-09-19T09:56:03;22.70;99.90
9762;DHT22;4920;49.594;11.022;2023-09-19T09:58:35;22.90;99.90
9762;DHT22;4920;49.594;11.022;2023-09-19T10:01:04;23.20;99.90
9762;DHT22;4920;49.594;11.022;2023-09-19T10:03:39;23.40;99.90
9762;DHT22;4920;49.594;11.022;2023-09-19T10:06:11;23.40;99.90
9762;DHT22;4920;49.594;11.022;2023-09-19T10:09:02;23.50;99.90
9762;DHT22;4920;49.594;11.022;2023-09-19T10:11:42;23.60;99.90
9762;DHT22;4920;49.594;11.022;2023-09-19T10:14:13;23.80;99.90
9762;DHT22;4920;49.594;11.022;2023-09-19T10:16:46;24.10;99.90
9762;DHT22;4920;49.594;11.022;2023-09-19T10:19:20;24.40;99.90
9762;DHT22;4920;49.594;11.022;2023-09-19T10:21:54;24.30;99.90
9762;DHT22;4920;49.594;11.022;2023-09-19T10:24:26;24.10;99.90
9762;DHT22;4920;49.594;11.022;2023-09-19T10:26:59;23.90;99.90
9762;DHT22;4920;49.594;11.022;2023-09-19T10:29:29;23.90;99.90
9762;DHT22;4920;49.594;11.022;2023-09-19T10:32:04;24.00;99.90
9762;DHT22;4920;49.594;11.022;2023-09-19T10:34:36;24.10;99.90
9762;DHT22;4920;49.594;11.022;2023-09-19T10:37:12;24.10;99.90
9762;DHT22;4920;49.594;11.022;2023-09-19T10:39:45;23.90;99.90
9762;DHT22;4920;49.594;11.022;2023-09-19T10:42:19;23.50;99.90
9762;DHT22;4920;49.594;11.022;2023-09-19T10:44:51;23.30;99.90
9762;DHT22;4920;49.594;11.022;2023-09-19T10:47:21;23.00;99.90
9762;DHT22;4920;49.594;11.022;2023-09-19T10:49:52;22.80;99.90
9762;DHT22;4920;49.594;11.022;2023-09-19T10:52:24;22.50;99.90
9762;DHT22;4920;49.594;11.022;2023-09-19T10:54:57;22.20;99.90
9762;DHT22;4920;49.594;11.022;2023-09-19T10:57:29;22.20;99.90
9762;DHT22;4920;49.594;11.022;2023-09-19T11:00:04;22.10;99.90
9762;DHT22;4920;49.594;11.022;2023-09-19T11:03:16;22.20;99.90
9762;DHT22;4920;49.594;11.022;2023-09-19T11:06:01;22.40;99.90
9762;DHT22;4920;49.594;11.022;2023-09-19T11:08:52;22.60;99.90
9762;DHT22;4920;49.594;11.022;2023-09-19T11:11:41;22.90;99.90
9762;DHT22;4920;49.594;11.022;2023-09-19T11:14:43;23.00;99.90
9762;DHT22;4920;49.594;11.022;2023-09-19T11:17:40;23.10;99.90
9762;DHT22;4920;49.594;11.022;2023-09-19T11:20:24;23.20;98.70
9762;DHT22;4920;49.594;11.022;2023-09-19T11:23:19;23.30;97.90
9762;DHT22;4920;49.594;11.022;2023-09-19T11:25:50;23.30;98.90
9762;DHT22;4920;49.594;11.022;2023-09-19T11:28:33;23.40;97.30
9762;DHT22;4920;49.594;11.022;2023-09-19T11:34:40;23.60;96.10
9762;DHT22;4920;49.594;11.022;2023-09-19T11:40:30;23.30;96.70
9762;DHT22;4920;49.594;11.022;2023-09-19T11:43:29;23.30;97.20
9762;DHT22;4920;49.594;11.022;2023-09-19T11:46:04;23.30;96.80
9762;DHT22;4920;49.594;11.022;2023-09-19T11:48:35;23.20;96.80
9762;DHT22;4920;49.594;11.022;2023-09-19T11:51:16;23.10;97.40
9762;DHT22;4920;49.594;11.022;2023-09-19T11:53:50;23.20;97.50
9762;DHT22;4920;49.594;11.022;2023-09-19T11:56:21;23.30;97.20
9762;DHT22;4920;49.594;11.022;2023-09-19T11:58:53;23.40;97.00
9762;DHT22;4920;49.594;11.022;2023-09-19T12:01:30;23.70;97.20
9762;DHT22;4920;49.594;11.022;2023-09-19T12:04:01;23.90;96.30
9762;DHT22;4920;49.594;11.022;2023-09-19T12:06:32;24.00;96.30
9762;DHT22;4920;49.594;11.022;2023-09-19T12:09:03;23.90;96.30
9762;DHT22;4920;49.594;11.022;2023-09-19T12:11:42;23.60;96.60
9762;DHT22;4920;49.594;11.022;2023-09-19T12:14:20;23.40;96.00
9762;DHT22;4920;49.594;11.022;2023-09-19T12:16:53;23.30;96.30
9762;DHT22;4920;49.594;11.022;2023-09-19T12:19:23;23.20;96.30
9762;DHT22;4920;49.594;11.022;2023-09-19T12:21:59;23.30;96.40
9762;DHT22;4920;49.594;11.022;2023-09-19T12:24:32;23.40;95.20
9762;DHT22;4920;49.594;11.022;2023-09-19T12:27:06;23.50;95.40
9762;DHT22;4920;49.594;11.022;2023-09-19T12:29:44;23.80;95.50
9762;DHT22;4920;49.594;11.022;2023-09-19T12:32:15;23.60;95.70
9762;DHT22;4920;49.594;11.022;2023-09-19T12:34:51;23.60;96.60
9762;DHT22;4920;49.594;11.022;2023-09-19T12:37:22;23.80;95.30
9762;DHT22;4920;49.594;11.022;2023-09-19T12:40:04;23.90;96.40
9762;DHT22;4920;49.594;11.022;2023-09-19T12:42:42;23.90;93.90
9762;DHT22;4920;49.594;11.022;2023-09-19T12:45:12;23.80;94.00
9762;DHT22;4920;49.594;11.022;2023-09-19T12:51:05;23.60;93.50
9762;DHT22;4920;49.594;11.022;2023-09-19T12:53:37;23.40;92.60
9762;DHT22;4920;49.594;11.022;2023-09-19T12:56:09;23.20;93.20
9762;DHT22;4920;49.594;11.022;2023-09-19T12:58:53;23.10;92.50
9762;DHT22;4920;49.594;11.022;2023-09-19T13:01:23;23.00;92.80
9762;DHT22;4920;49.594;11.022;2023-09-19T13:04:15;22.80;92.20
9762;DHT22;4920;49.594;11.022;2023-09-19T13:06:50;22.60;92.50
9762;DHT22;4920;49.594;11.022;2023-09-19T13:09:21;22.50;93.10
9762;DHT22;4920;49.594;11.022;2023-09-19T13:11:52;22.50;93.10
9762;DHT22;4920;49.594;11.022;2023-09-19T13:14:23;22.60;92.90
9762;DHT22;4920;49.594;11.022;2023-09-19T13:16:56;22.50;93.30
9762;DHT22;4920;49.594;11.022;2023-09-19T13:19:36;22.50;92.80
9762;DHT22;4920;49.594;11.022;2023-09-19T13:22:40;22.40;93.20
9762;DHT22;4920;49.594;11.022;2023-09-19T13:25:13;22.40;93.00
9762;DHT22;4920;49.594;11.022;2023-09-19T13:27:44;22.40;93.60
9762;DHT22;4920;49.594;11.022;2023-09-19T13:30:13;22.50;93.70
9762;DHT22;4920;49.594;11.022;2023-09-19T13:32:43;22.50;93.40
9762;DHT22;4920;49.594;11.022;2023-09-19T13:35:15;22.60;93.30
9762;DHT22;4920;49.594;11.022;2023-09-19T13:37:47;22.50;93.70
9762;DHT22;4920;49.594;11.022;2023-09-19T13:40:19;22.70;94.10
9762;DHT22;4920;49.594;11.022;2023-09-19T13:42:48;22.70;92.90
9762;DHT22;4920;49.594;11.022;2023-09-19T13:45:21;22.70;93.80
9762;DHT22;4920;49.594;11.022;2023-09-19T13:47:52;22.80;94.20
9762;DHT22;4920;49.594;11.022;2023-09-19T13:50:21;22.80;93.90
9762;DHT22;4920;49.594;11.022;2023-09-19T13:52:53;23.00;93.70
9762;DHT22;4920;49.594;11.022;2023-09-19T13:55:22;23.10;93.80
9762;DHT22;4920;49.594;11.022;2023-09-19T13:57:52;23.20;93.20
9762;DHT22;4920;49.594;11.022;2023-09-19T14:00:23;23.10;93.50
9762;DHT22;4920;49.594;11.022;2023-09-19T14:02:52;23.10;93.80
9762;DHT22;4920;49.594;11.022;2023-09-19T14:05:21;23.30;93.50
9762;DHT22;4920;49.594;11.022;2023-09-19T14:07:56;23.40;93.60
9762;DHT22;4920;49.594;11.022;2023-09-19T14:10:26;23.60;93.00
9762;DHT22;4920;49.594;11.022;2023-09-19T14:12:57;23.60;93.10
9762;DHT22;4920;49.594;11.022;2023-09-19T14:15:27;23.80;93.10
9762;DHT22;4920;49.594;11.022;2023-09-19T14:17:58;23.80;92.70
9762;DHT22;4920;49.594;11.022;2023-09-19T14:20:28;23.90;92.90
9762;DHT22;4920;49.594;11.022;2023-09-19T14:23:00;24.00;91.90
9762;DHT22;4920;49.594;11.022;2023-09-19T14:25:29;24.00;92.00
9762;DHT22;4920;49.594;11.022;2023-09-19T14:27:58;24.10;92.50
9762;DHT22;4920;49.594;11.022;2023-09-19T14:30:27;24.10;91.60
9762;DHT22;4920;49.594;11.022;2023-09-19T14:32:57;24.00;92.00
9762;DHT22;4920;49.594;11.022;2023-09-19T14:35:26;24.00;92.30
9762;DHT22;4920;49.594;11.022;2023-09-19T14:37:55;24.10;92.90
9762;DHT22;4920;49.594;11.022;2023-09-19T14:40:25;24.30;92.40
9762;DHT22;4920;49.594;11.022;2023-09-19T14:42:54;24.40;92.60
9762;DHT22;4920;49.594;11.022;2023-09-19T14:45:23;24.40;92.30
9762;DHT22;4920;49.594;11.022;2023-09-19T14:47:53;24.40;91.70
9762;DHT22;4920;49.594;11.022;2023-09-19T14:50:23;24.30;92.10
9762;DHT22;4920;49.594;11.022;2023-09-19T14:52:53;24.30;92.00
9762;DHT22;4920;49.594;11.022;2023-09-19T14:55:22;24.10;92.00
9762;DHT22;4920;49.594;11.022;2023-09-19T14:57:53;23.90;91.40
9762;DHT22;4920;49.594;11.022;2023-09-19T15:00:24;23.80;92.20
9762;DHT22;4920;49.594;11.022;2023-09-19T15:02:53;23.70;91.50
9762;DHT22;4920;49.594;11.022;2023-09-19T15:05:23;23.50;91.70
9762;DHT22;4920;49.594;11.022;2023-09-19T15:07:53;23.40;91.60
9762;DHT22;4920;49.594;11.022;2023-09-19T15:10:23;23.20;91.80
9762;DHT22;4920;49.594;11.022;2023-09-19T15:12:54;23.10;92.40
9762;DHT22;4920;49.594;11.022;2023-09-19T15:15:23;23.00;92.30
9762;DHT22;4920;49.594;11.022;2023-09-19T15:17:52;23.00;92.70
9762;DHT22;4920;49.594;11.022;2023-09-19T15:20:21;23.00;92.90
9762;DHT22;4920;49.594;11.022;2023-09-19T15:22:50;23.00;91.90
9762;DHT22;4920;49.594;11.022;2023-09-19T15:25:19;23.00;92.00
9762;DHT22;4920;49.594;11.022;2023-09-19T15:27:48;22.90;92.10
9762;DHT22;4920;49.594;11.022;2023-09-19T15:30:18;22.90;92.20
9762;DHT22;4920;49.594;11.022;2023-09-19T15:32:47;22.90;92.20
9762;DHT22;4920;49.594;11.022;2023-09-19T15:35:16;22.90;92.60
9762;DHT22;4920;49.594;11.022;2023-09-19T15:37:46;22.80;92.10
9762;DHT22;4920;49.594;11.022;2023-09-19T15:40:15;22.60;92.20
9762;DHT22;4920;49.594;11.022;2023-09-19T15:42:44;22.60;92.90
9762;DHT22;4920;49.594;11.022;2023-09-19T15:45:12;22.60;92.60
9762;DHT22;4920;49.594;11.022;2023-09-19T15:47:44;22.50;92.40
9762;DHT22;4920;49.594;11.022;2023-09-19T15:50:13;22.50;92.90
9762;DHT22;4920;49.594;11.022;2023-09-19T15:52:43;22.50;92.80
9762;DHT22;4920;49.594;11.022;2023-09-19T15:55:12;22.60;93.60
9762;DHT22;4920;49.594;11.022;2023-09-19T15:57:42;22.60;93.20
9762;DHT22;4920;49.594;11.022;2023-09-19T16:00:13;22.60;92.10
9762;DHT22;4920;49.594;11.022;2023-09-19T16:02:46;22.60;92.30
9762;DHT22;4920;49.594;11.022;2023-09-19T16:05:18;22.50;92.50
9762;DHT22;4920;49.594;11.022;2023-09-19T16:07:47;22.40;92.20
9762;DHT22;4920;49.594;11.022;2023-09-19T16:10:16;22.30;92.00
9762;DHT22;4920;49.594;11.022;2023-09-19T16:12:45;22.30;92.60
9762;DHT22;4920;49.594;11.022;2023-09-19T16:15:14;22.20;92.70
9762;DHT22;4920;49.594;11.022;2023-09-19T16:17:43;22.10;93.00
9762;DHT22;4920;49.594;11.022;2023-09-19T16:20:14;22.10;93.40
9762;DHT22;4920;49.594;11.022;2023-09-19T16:22:45;22.00;93.20
9762;DHT22;4920;49.594;11.022;2023-09-19T16:25:15;21.80;93.70
9762;DHT22;4920;49.594;11.022;2023-09-19T16:27:44;21.70;93.40
9762;DHT22;4920;49.594;11.022;2023-09-19T16:30:13;21.60;93.60